createdAt,value
2017-03-03T00:00:40.453Z,3.59
2017-03-03T00:01:50.356Z,3.59
2017-03-03T00:03:00.646Z,3.54
2017-03-03T00:04:10.959Z,3.58
2017-03-03T00:05:20.885Z,3.55
2017-03-03T00:06:31.045Z,3.52
2017-03-03T00:07:40.941Z,3.55
2017-03-03T00:08:50.051Z,3.55
2017-03-03T00:10:00.347Z,3.47
2017-03-03T00:11:10.212Z,3.47
2017-03-03T00:12:20.820Z,3.47
2017-03-03T00:13:30.711Z,3.49
2017-03-03T00:14:40.651Z,3.52
2017-03-03T00:15:51.082Z,3.44
2017-03-03T00:17:00.586Z,3.49
2017-03-03T00:18:10.805Z,3.49
2017-03-03T00:19:21.124Z,3.5
2017-03-03T00:20:31.044Z,3.5
2017-03-03T00:21:41.316Z,3.49
2017-03-03T00:22:51.209Z,3.36
2017-03-03T00:24:01.850Z,3.36
2017-03-03T00:25:11.731Z,3.4
2017-03-03T00:26:22.042Z,3.32
2017-03-03T00:27:32.381Z,3.29
2017-03-03T00:28:41.447Z,3.29
2017-03-03T00:29:51.568Z,3.26
2017-03-03T00:31:01.899Z,3.26
2017-03-03T00:32:12.184Z,3.28
2017-03-03T00:33:22.148Z,3.34
2017-03-03T00:34:32.415Z,3.34
2017-03-03T00:35:43.042Z,3.31
2017-03-03T00:36:53.381Z,3.29
2017-03-03T00:38:03.634Z,3.22
2017-03-03T00:39:13.552Z,3.22
2017-03-03T00:40:23.458Z,3.15
2017-03-03T00:41:34.028Z,3.13
2017-03-03T00:42:44.315Z,3.18
2017-03-03T00:43:54.645Z,3.18
2017-03-03T00:45:04.990Z,3.19
2017-03-03T00:46:15.050Z,3.18
2017-03-03T00:47:25.605Z,3.19
2017-03-03T00:48:35.986Z,3.21
2017-03-03T00:49:45.884Z,3.19
2017-03-03T00:50:56.183Z,3.13
2017-03-03T00:52:06.494Z,3.13
2017-03-03T00:53:17.070Z,3.19
2017-03-03T00:54:27.362Z,3.22
2017-03-03T00:55:37.280Z,3.21
2017-03-03T00:56:47.630Z,3.25
2017-03-03T00:57:57.928Z,3.21
2017-03-03T00:59:07.658Z,3.1
2017-03-03T01:00:17.576Z,3.16
2017-03-03T01:01:27.883Z,3.07
2017-03-03T01:02:38.197Z,3.07
2017-03-03T01:03:48.586Z,3.06
2017-03-03T01:04:58.783Z,3.1
2017-03-03T01:06:09.089Z,3.08
2017-03-03T01:07:19.396Z,3.1
2017-03-03T01:08:28.905Z,3.06
2017-03-03T01:09:38.766Z,3.06
2017-03-03T01:10:49.323Z,3.1
2017-03-03T01:11:59.675Z,2.94
2017-03-03T01:13:09.945Z,2.92
2017-03-03T01:14:20.312Z,2.92
2017-03-03T01:15:30.586Z,2.92
2017-03-03T01:16:40.323Z,2.84
2017-03-03T01:17:50.295Z,2.87
2017-03-03T01:19:00.634Z,2.89
2017-03-03T01:20:10.962Z,2.91
2017-03-03T01:21:21.254Z,2.89
2017-03-03T01:22:31.787Z,2.87
2017-03-03T01:23:42.092Z,2.82
2017-03-03T01:24:52.026Z,2.88
2017-03-03T01:26:01.920Z,2.89
2017-03-03T01:27:12.226Z,2.89
2017-03-03T01:28:22.414Z,2.89
2017-03-03T01:29:32.760Z,2.82
2017-03-03T01:30:42.663Z,2.85
2017-03-03T01:31:52.963Z,2.82
2017-03-03T01:33:02.973Z,2.78
2017-03-03T01:34:13.214Z,2.77
2017-03-03T01:35:23.507Z,2.88
2017-03-03T01:36:33.850Z,2.88
2017-03-03T01:37:44.213Z,2.84
2017-03-03T01:38:54.464Z,2.84
2017-03-03T01:40:04.691Z,2.82
2017-03-03T01:41:15.022Z,2.82
2017-03-03T01:42:25.371Z,2.79
2017-03-03T01:43:35.881Z,2.74
2017-03-03T01:44:46.418Z,2.67
2017-03-03T01:45:56.685Z,2.55
2017-03-03T01:47:06.557Z,2.51
2017-03-03T01:48:16.884Z,2.46
2017-03-03T01:49:27.232Z,2.42
2017-03-03T01:50:37.105Z,2.45
2017-03-03T01:51:46.833Z,2.37
2017-03-03T01:52:57.160Z,2.3
2017-03-03T01:54:06.670Z,2.36
2017-03-03T01:55:16.967Z,2.31
2017-03-03T01:56:26.872Z,2.28
2017-03-03T01:57:37.460Z,2.28
2017-03-03T01:58:47.734Z,2.34
2017-03-03T01:59:58.028Z,2.33
2017-03-03T02:01:08.292Z,2.27
2017-03-03T02:02:18.188Z,2.24
2017-03-03T02:03:28.795Z,2.28
2017-03-03T02:04:38.691Z,2.33
2017-03-03T02:05:48.565Z,2.37
2017-03-03T02:06:58.547Z,2.33
2017-03-03T02:08:08.831Z,2.27
2017-03-03T02:09:19.369Z,2.37
2017-03-03T02:10:29.623Z,2.26
2017-03-03T02:11:39.493Z,2.28
2017-03-03T02:12:49.765Z,2.33
2017-03-03T02:14:00.072Z,2.3
2017-03-03T02:15:10.225Z,2.33
2017-03-03T02:16:20.565Z,2.42
2017-03-03T02:17:30.961Z,2.33
2017-03-03T02:18:40.837Z,2.36
2017-03-03T02:19:51.189Z,2.3
2017-03-03T02:21:01.839Z,2.27
2017-03-03T02:22:10.915Z,2.21
2017-03-03T02:23:20.820Z,2.12
2017-03-03T02:24:30.814Z,2.12
2017-03-03T02:25:41.126Z,2.1
2017-03-03T02:26:51.947Z,2.09
2017-03-03T02:28:02.214Z,2.09
2017-03-03T02:29:11.769Z,2.13
2017-03-03T02:30:22.062Z,2.1
2017-03-03T02:31:32.069Z,2.12
2017-03-03T02:32:42.578Z,2.15
2017-03-03T02:33:52.097Z,2.21
2017-03-03T02:35:02.421Z,2.23
2017-03-03T02:36:12.763Z,2.28
2017-03-03T02:37:22.756Z,2.24
2017-03-03T02:38:32.879Z,2.31
2017-03-03T02:39:43.170Z,2.31
2017-03-03T02:40:53.513Z,2.28
2017-03-03T02:42:03.790Z,2.34
2017-03-03T02:43:14.082Z,2.33
2017-03-03T02:44:24.629Z,2.34
2017-03-03T02:45:34.897Z,2.24
2017-03-03T02:46:44.828Z,2.19
2017-03-03T02:47:55.122Z,2.24
2017-03-03T02:49:05.027Z,2.28
2017-03-03T02:50:15.199Z,2.24
2017-03-03T02:51:25.060Z,2.27
2017-03-03T02:52:35.455Z,2.27
2017-03-03T02:53:45.794Z,2.27
2017-03-03T02:54:55.727Z,2.3
2017-03-03T02:56:06.312Z,2.3
2017-03-03T02:57:16.241Z,2.24
2017-03-03T02:58:26.500Z,2.27
2017-03-03T02:59:36.780Z,2.3
2017-03-03T03:00:47.096Z,2.33
2017-03-03T03:01:57.666Z,2.31
2017-03-03T03:03:07.988Z,2.24
2017-03-03T03:04:18.337Z,2.36
2017-03-03T03:05:28.597Z,2.36
2017-03-03T03:06:38.952Z,2.27
2017-03-03T03:07:49.512Z,2.26
2017-03-03T03:08:59.837Z,2.26
2017-03-03T03:10:09.744Z,2.28
2017-03-03T03:11:20.078Z,2.44
2017-03-03T03:12:30.422Z,2.27
2017-03-03T03:13:40.959Z,2.34
2017-03-03T03:14:51.308Z,2.3
2017-03-03T03:16:01.702Z,2.46
2017-03-03T03:17:11.609Z,2.48
2017-03-03T03:18:21.903Z,2.44
2017-03-03T03:19:32.055Z,2.41
2017-03-03T03:20:41.548Z,2.42
2017-03-03T03:21:51.050Z,2.44
2017-03-03T03:23:01.353Z,2.39
2017-03-03T03:24:11.739Z,2.23
2017-03-03T03:25:21.934Z,2.34
2017-03-03T03:26:32.265Z,2.34
2017-03-03T03:27:42.608Z,2.28
2017-03-03T03:28:52.965Z,2.33
2017-03-03T03:30:02.885Z,2.28
2017-03-03T03:31:13.071Z,2.21
2017-03-03T03:32:23.356Z,2.18
2017-03-03T03:33:33.657Z,2.08
2017-03-03T03:34:43.960Z,2.13
2017-03-03T03:35:53.941Z,2.1
2017-03-03T03:37:04.196Z,2.12
2017-03-03T03:38:14.060Z,2.1
2017-03-03T03:39:24.466Z,2.1
2017-03-03T03:40:34.817Z,2.1
2017-03-03T03:41:44.720Z,2.08
2017-03-03T03:42:55.320Z,2.12
2017-03-03T03:44:05.191Z,2.12
2017-03-03T03:45:15.494Z,2.09
2017-03-03T03:46:25.767Z,2.13
2017-03-03T03:47:36.056Z,2.16
2017-03-03T03:48:45.365Z,2.23
2017-03-03T03:49:55.220Z,2.26
2017-03-03T03:51:05.518Z,2.24
2017-03-03T03:52:15.791Z,2.26
2017-03-03T03:53:26.142Z,2.19
2017-03-03T03:54:36.680Z,2.19
2017-03-03T03:55:46.203Z,2.26
2017-03-03T03:56:56.584Z,2.26
2017-03-03T03:58:06.921Z,2.16
2017-03-03T03:59:17.244Z,2.27
2017-03-03T04:00:27.758Z,2.19
2017-03-03T04:01:38.081Z,2.19
2017-03-03T04:02:48.503Z,2.18
2017-03-03T04:03:58.768Z,2.18
2017-03-03T04:05:08.251Z,2.18
2017-03-03T04:06:18.816Z,2.12
2017-03-03T04:07:29.106Z,2.19
2017-03-03T04:08:39.500Z,2.16
2017-03-03T04:09:49.369Z,2.13
2017-03-03T04:10:59.677Z,2.12
2017-03-03T04:12:09.807Z,2.1
2017-03-03T04:13:20.141Z,2.1
2017-03-03T04:14:30.448Z,2.06
2017-03-03T04:15:40.726Z,2.03
2017-03-03T04:16:51.055Z,2.01
2017-03-03T04:18:01.611Z,2.08
2017-03-03T04:19:11.872Z,2.08
2017-03-03T04:20:22.163Z,2.03
2017-03-03T04:21:31.657Z,2.06
2017-03-03T04:22:41.978Z,1.94
2017-03-03T04:23:52.677Z,2.03
2017-03-03T04:25:03.018Z,2.01
2017-03-03T04:26:13.568Z,1.97
2017-03-03T04:27:23.830Z,1.92
2017-03-03T04:28:34.133Z,1.88
2017-03-03T04:29:44.354Z,1.8
2017-03-03T04:30:54.891Z,1.88
2017-03-03T04:32:05.132Z,1.85
2017-03-03T04:33:15.000Z,1.84
2017-03-03T04:34:25.118Z,1.87
2017-03-03T04:35:34.850Z,1.84
2017-03-03T04:36:44.339Z,1.84
2017-03-03T04:37:54.243Z,1.91
2017-03-03T04:39:04.534Z,1.8
2017-03-03T04:40:14.494Z,1.87
2017-03-03T04:41:24.651Z,1.82
2017-03-03T04:42:34.972Z,1.8
2017-03-03T04:43:45.258Z,1.84
2017-03-03T04:44:55.540Z,1.8
2017-03-03T04:46:05.851Z,1.77
2017-03-03T04:47:16.392Z,1.79
2017-03-03T04:48:26.299Z,1.92
2017-03-03T04:49:36.234Z,1.87
2017-03-03T04:50:46.220Z,1.92
2017-03-03T04:51:56.528Z,1.85
2017-03-03T04:53:07.075Z,1.87
2017-03-03T04:54:16.989Z,1.85
2017-03-03T04:55:27.276Z,1.94
2017-03-03T04:56:37.563Z,2.01
2017-03-03T04:57:47.475Z,1.95
2017-03-03T04:58:57.216Z,1.91
2017-03-03T05:00:07.496Z,1.97
2017-03-03T05:01:17.771Z,1.97
2017-03-03T05:02:28.287Z,1.98
2017-03-03T05:03:38.630Z,2.06
2017-03-03T05:04:48.815Z,2.03
2017-03-03T05:05:59.285Z,2.01
2017-03-03T05:07:09.172Z,2.05
2017-03-03T05:08:19.053Z,2.03
2017-03-03T05:09:29.378Z,2.18
2017-03-03T05:10:39.509Z,2.08
2017-03-03T05:11:49.813Z,2.08
2017-03-03T05:12:59.693Z,2.13
2017-03-03T05:14:10.113Z,2.16
2017-03-03T05:15:19.590Z,2.16
2017-03-03T05:16:29.747Z,2.16
2017-03-03T05:17:40.029Z,2.23
2017-03-03T05:18:49.970Z,2.23
2017-03-03T05:19:59.552Z,2.24
2017-03-03T05:21:09.435Z,2.24
2017-03-03T05:22:20.009Z,2.33
2017-03-03T05:23:30.317Z,2.28
2017-03-03T05:24:40.310Z,2.27
2017-03-03T05:25:50.175Z,2.27
2017-03-03T05:27:00.049Z,2.31
2017-03-03T05:28:10.634Z,2.37
2017-03-03T05:29:20.515Z,2.31
2017-03-03T05:30:30.806Z,2.31
2017-03-03T05:31:40.749Z,2.28
2017-03-03T05:32:51.102Z,2.23
2017-03-03T05:34:01.629Z,2.21
2017-03-03T05:35:11.890Z,2.21
2017-03-03T05:36:22.208Z,2.18
2017-03-03T05:37:32.685Z,2.21
2017-03-03T05:38:42.960Z,2.24
2017-03-03T05:39:53.574Z,2.23
2017-03-03T05:41:03.899Z,2.26
2017-03-03T05:42:14.215Z,2.26
2017-03-03T05:43:24.214Z,2.15
2017-03-03T05:44:34.528Z,2.23
2017-03-03T05:45:45.050Z,2.26
2017-03-03T05:46:54.978Z,2.27
2017-03-03T05:48:05.265Z,2.21
2017-03-03T05:49:15.161Z,2.26
2017-03-03T05:50:25.579Z,2.26
2017-03-03T05:51:36.163Z,2.26
2017-03-03T05:52:46.081Z,2.28
2017-03-03T05:53:56.500Z,2.28
2017-03-03T05:55:06.785Z,2.26
2017-03-03T05:56:17.082Z,2.27
2017-03-03T05:57:27.677Z,2.42
2017-03-03T05:58:37.121Z,2.42
2017-03-03T05:59:47.403Z,2.31
2017-03-03T06:00:57.886Z,2.31
2017-03-03T06:02:08.248Z,2.3
2017-03-03T06:03:18.802Z,2.34
2017-03-03T06:04:28.792Z,2.33
2017-03-03T06:05:39.194Z,2.39
2017-03-03T06:06:49.564Z,2.37
2017-03-03T06:07:59.976Z,2.41
2017-03-03T06:09:10.598Z,2.44
2017-03-03T06:10:20.533Z,2.45
2017-03-03T06:11:30.940Z,2.49
2017-03-03T06:12:41.223Z,2.62
2017-03-03T06:13:51.534Z,2.64
2017-03-03T06:15:02.065Z,2.77
2017-03-03T06:16:12.365Z,2.74
2017-03-03T06:17:21.770Z,2.73
2017-03-03T06:18:32.051Z,2.73
2017-03-03T06:19:42.480Z,2.74
2017-03-03T06:20:53.025Z,2.67
2017-03-03T06:22:03.347Z,2.71
2017-03-03T06:23:13.626Z,2.77
2017-03-03T06:24:23.931Z,2.71
2017-03-03T06:25:34.234Z,2.63
2017-03-03T06:26:44.815Z,2.67
2017-03-03T06:27:55.131Z,2.63
2017-03-03T06:29:05.076Z,2.6
2017-03-03T06:30:15.380Z,2.67
2017-03-03T06:31:25.687Z,2.64
2017-03-03T06:32:36.268Z,2.63
2017-03-03T06:33:46.592Z,2.64
2017-03-03T06:34:56.886Z,2.62
2017-03-03T06:36:07.177Z,2.67
2017-03-03T06:37:17.569Z,2.71
2017-03-03T06:38:28.116Z,2.71
2017-03-03T06:39:38.401Z,2.71
2017-03-03T06:40:48.686Z,2.69
2017-03-03T06:41:58.583Z,2.77
2017-03-03T06:43:08.981Z,2.74
2017-03-03T06:44:18.734Z,2.77
2017-03-03T06:45:29.155Z,2.87
2017-03-03T06:46:39.465Z,2.79
2017-03-03T06:47:49.353Z,2.74
2017-03-03T06:48:59.674Z,2.81
2017-03-03T06:50:10.223Z,2.87
2017-03-03T06:51:20.144Z,2.89
2017-03-03T06:52:30.450Z,2.91
2017-03-03T06:53:40.704Z,2.92
2017-03-03T06:54:51.001Z,2.88
2017-03-03T06:56:01.561Z,2.85
2017-03-03T06:57:11.844Z,2.89
2017-03-03T06:58:22.123Z,2.84
2017-03-03T06:59:32.118Z,2.82
2017-03-03T07:00:41.629Z,2.91
2017-03-03T07:01:52.178Z,2.92
2017-03-03T07:03:02.472Z,2.92
2017-03-03T07:04:12.763Z,3.02
2017-03-03T07:05:23.046Z,3
2017-03-03T07:06:33.351Z,3.06
2017-03-03T07:07:43.952Z,2.99
2017-03-03T07:08:53.910Z,3.06
2017-03-03T07:10:04.177Z,3.1
2017-03-03T07:11:14.564Z,3.16
2017-03-03T07:12:25.132Z,3.21
2017-03-03T07:13:35.818Z,3.26
2017-03-03T07:14:46.101Z,3.34
2017-03-03T07:15:56.396Z,3.25
2017-03-03T07:17:06.701Z,3.28
2017-03-03T07:18:17.019Z,3.36
2017-03-03T07:19:27.588Z,3.31
2017-03-03T07:20:37.964Z,3.44
2017-03-03T07:21:48.388Z,3.4
2017-03-03T07:22:58.671Z,3.37
2017-03-03T07:24:08.943Z,3.61
2017-03-03T07:25:19.481Z,3.65
2017-03-03T07:26:29.528Z,3.58
2017-03-03T07:27:39.835Z,3.73
2017-03-03T07:28:50.259Z,3.83
2017-03-03T07:30:00.492Z,3.91
2017-03-03T07:31:11.045Z,4.03
2017-03-03T07:32:20.941Z,4.12
2017-03-03T07:33:30.938Z,4.23
2017-03-03T07:34:40.828Z,4.33
2017-03-03T07:35:51.251Z,4.27
2017-03-03T07:37:01.808Z,4.49
2017-03-03T07:38:12.126Z,4.62
2017-03-03T07:39:22.487Z,4.7
2017-03-03T07:40:32.939Z,4.85
2017-03-03T07:41:43.238Z,5.17
2017-03-03T07:42:53.801Z,5.49
2017-03-03T07:44:04.889Z,5.9
2017-03-03T07:45:15.453Z,6.19
2017-03-03T07:46:26.492Z,6.38
2017-03-03T07:47:37.520Z,6.52
2017-03-03T07:48:48.794Z,6.79
2017-03-03T07:49:59.806Z,6.99
2017-03-03T07:51:10.809Z,6.89
2017-03-03T07:52:21.818Z,7.03
2017-03-03T07:53:32.954Z,7.13
2017-03-03T07:54:44.247Z,7.41
2017-03-03T07:55:55.296Z,7.76
2017-03-03T07:57:05.936Z,7.82
2017-03-03T07:58:17.001Z,8.02
2017-03-03T07:59:27.650Z,8.21
2017-03-03T08:00:38.492Z,8.17
2017-03-03T08:01:49.100Z,8.1
2017-03-03T08:02:59.705Z,8.37
2017-03-03T08:04:10.501Z,8.53
2017-03-03T08:05:20.692Z,8.67
2017-03-03T08:06:31.954Z,8.74
2017-03-03T08:07:42.151Z,8.95
2017-03-03T08:08:52.355Z,8.93
2017-03-03T08:10:03.393Z,8.97
2017-03-03T08:11:14.180Z,9.09
2017-03-03T08:12:25.481Z,9.26
2017-03-03T08:13:36.507Z,9.23
2017-03-03T08:14:47.580Z,9.11
2017-03-03T08:15:58.133Z,9
2017-03-03T08:17:09.224Z,8.64
2017-03-03T08:18:20.562Z,8.53
2017-03-03T08:19:30.036Z,8.17
2017-03-03T08:20:40.463Z,7.7
2017-03-03T08:21:50.758Z,7.47
2017-03-03T08:23:01.092Z,7.06
2017-03-03T08:24:10.892Z,7.02
2017-03-03T08:25:21.221Z,6.87
2017-03-03T08:26:31.521Z,6.9
2017-03-03T08:27:41.924Z,7
2017-03-03T08:28:51.865Z,7.15
2017-03-03T08:30:02.019Z,7.13
2017-03-03T08:31:12.515Z,7.29
2017-03-03T08:32:22.807Z,7.24
2017-03-03T08:33:33.326Z,7.22
2017-03-03T08:34:43.613Z,7.08
2017-03-03T08:35:53.744Z,6.97
2017-03-03T08:37:04.044Z,6.93
2017-03-03T08:38:14.336Z,6.85
2017-03-03T08:39:24.653Z,6.82
2017-03-03T08:40:35.716Z,7
2017-03-03T08:41:46.594Z,7.84
2017-03-03T08:42:56.841Z,8.49
2017-03-03T08:44:07.872Z,9.4
2017-03-03T08:45:18.506Z,10
2017-03-03T08:46:29.631Z,10.87
2017-03-03T08:47:40.598Z,11.38
2017-03-03T08:48:51.702Z,11.8
2017-03-03T08:50:02.821Z,12.15
2017-03-03T08:51:13.915Z,12.44
2017-03-03T08:52:25.011Z,12.88
2017-03-03T08:53:35.981Z,13.18
2017-03-03T08:54:47.068Z,13.73
2017-03-03T08:55:58.155Z,13.99
2017-03-03T08:57:09.292Z,14.18
2017-03-03T08:58:20.026Z,14.16
2017-03-03T08:59:31.368Z,14.18
2017-03-03T09:00:42.685Z,14.11
2017-03-03T09:01:53.766Z,14.18
2017-03-03T09:03:04.819Z,14.45
2017-03-03T09:04:14.634Z,14.47
2017-03-03T09:05:26.019Z,14.74
2017-03-03T09:06:37.132Z,14.69
2017-03-03T09:07:47.786Z,14.69
2017-03-03T09:08:58.535Z,14.78
2017-03-03T09:10:09.116Z,14.99
2017-03-03T09:11:20.423Z,15.03
2017-03-03T09:12:31.645Z,15.23
2017-03-03T09:13:42.727Z,15.42
2017-03-03T09:14:53.896Z,15.57
2017-03-03T09:16:04.505Z,15.88
2017-03-03T09:17:15.828Z,15.92
2017-03-03T09:18:26.854Z,16.1
2017-03-03T09:19:37.508Z,16.17
2017-03-03T09:20:48.567Z,15.87
2017-03-03T09:21:59.655Z,15.64
2017-03-03T09:23:10.940Z,15.35
2017-03-03T09:24:21.540Z,15.11
2017-03-03T09:25:32.198Z,15.23
2017-03-03T09:26:42.833Z,15.24
2017-03-03T09:27:53.541Z,15.33
2017-03-03T09:29:04.453Z,15.58
2017-03-03T09:30:14.611Z,15.61
2017-03-03T09:31:25.753Z,15.25
2017-03-03T09:32:35.989Z,14.85
2017-03-03T09:33:47.132Z,14.67
2017-03-03T09:34:58.467Z,14.75
2017-03-03T09:36:09.501Z,14.96
2017-03-03T09:37:20.509Z,14.99
2017-03-03T09:38:30.626Z,14.99
2017-03-03T09:39:41.491Z,14.85
2017-03-03T09:40:52.365Z,14.58
2017-03-03T09:42:03.429Z,14.54
2017-03-03T09:43:14.054Z,14.74
2017-03-03T09:44:24.768Z,14.63
2017-03-03T09:45:35.415Z,14.56
2017-03-03T09:46:46.811Z,14.45
2017-03-03T09:47:57.895Z,14.37
2017-03-03T09:49:08.954Z,14.11
2017-03-03T09:50:19.484Z,14.02
2017-03-03T09:51:29.703Z,14.03
2017-03-03T09:52:40.575Z,13.92
2017-03-03T09:53:51.344Z,13.96
2017-03-03T09:55:02.364Z,14.19
2017-03-03T09:56:13.434Z,14.14
2017-03-03T09:57:24.490Z,14.13
2017-03-03T09:58:35.783Z,14.32
2017-03-03T09:59:46.480Z,14.47
2017-03-03T10:00:56.992Z,14.54
2017-03-03T10:02:07.639Z,14.54
2017-03-03T10:03:18.647Z,14.24
2017-03-03T10:04:29.958Z,13.99
2017-03-03T10:05:41.002Z,13.56
2017-03-03T10:06:52.070Z,13.09
2017-03-03T10:08:03.098Z,12.72
2017-03-03T10:09:14.141Z,12.38
2017-03-03T10:10:25.574Z,12.26
2017-03-03T10:11:36.675Z,12.04
2017-03-03T10:12:47.722Z,11.94
2017-03-03T10:13:58.358Z,11.8
2017-03-03T10:15:08.947Z,11.76
2017-03-03T10:16:20.237Z,11.76
2017-03-03T10:17:30.899Z,11.89
2017-03-03T10:18:41.574Z,12.05
2017-03-03T10:19:52.685Z,12.41
2017-03-03T10:21:03.760Z,12.64
2017-03-03T10:22:15.027Z,12.81
2017-03-03T10:23:26.083Z,12.8
2017-03-03T10:24:37.156Z,13.06
2017-03-03T10:25:48.171Z,13.16
2017-03-03T10:26:59.216Z,13.12
2017-03-03T10:28:10.542Z,12.97
2017-03-03T10:29:21.591Z,13
2017-03-03T10:30:32.614Z,12.9
2017-03-03T10:31:43.198Z,13.03
2017-03-03T10:32:53.904Z,13.29
2017-03-03T10:34:05.253Z,13.46
2017-03-03T10:35:16.281Z,13.61
2017-03-03T10:36:27.324Z,13.56
2017-03-03T10:37:38.393Z,13.45
2017-03-03T10:38:49.147Z,13.48
2017-03-03T10:40:00.392Z,13.64
2017-03-03T10:41:11.401Z,13.71
2017-03-03T10:42:22.010Z,13.56
2017-03-03T10:43:33.068Z,13.52
2017-03-03T10:44:43.600Z,13.48
2017-03-03T10:45:54.872Z,13.49
2017-03-03T10:47:05.915Z,13.59
2017-03-03T10:48:16.999Z,13.61
2017-03-03T10:49:27.655Z,13.81
2017-03-03T10:50:38.668Z,13.76
2017-03-03T10:51:49.142Z,13.7
2017-03-03T10:53:00.169Z,13.85
2017-03-03T10:54:11.168Z,13.69
2017-03-03T10:55:21.808Z,13.61
2017-03-03T10:56:32.467Z,13.58
2017-03-03T10:57:43.344Z,13.7
2017-03-03T10:58:54.376Z,13.81
2017-03-03T11:00:05.447Z,13.92
2017-03-03T11:01:16.087Z,13.73
2017-03-03T11:02:27.159Z,13.7
2017-03-03T11:03:38.458Z,13.61
2017-03-03T11:04:49.097Z,13.54
2017-03-03T11:06:00.231Z,13.48
2017-03-03T11:07:11.303Z,13.16
2017-03-03T11:08:22.508Z,12.81
2017-03-03T11:09:33.951Z,12.55
2017-03-03T11:10:43.955Z,12.34
2017-03-03T11:11:54.396Z,12.15
2017-03-03T11:13:04.695Z,12.04
2017-03-03T11:14:14.656Z,11.86
2017-03-03T11:15:24.827Z,11.74
2017-03-03T11:16:35.228Z,11.43
2017-03-03T11:17:45.152Z,11.58
2017-03-03T11:18:55.290Z,11.42
2017-03-03T11:20:05.664Z,11.34
2017-03-03T11:21:16.512Z,11.48
2017-03-03T11:22:26.387Z,11.58
2017-03-03T11:23:36.701Z,11.74
2017-03-03T11:24:47.034Z,12.01
2017-03-03T11:25:57.406Z,12.16
2017-03-03T11:27:07.985Z,12.16
2017-03-03T11:28:18.352Z,12.16
2017-03-03T11:29:28.256Z,12.26
2017-03-03T11:30:38.592Z,12.32
2017-03-03T11:31:48.506Z,12.52
2017-03-03T11:32:58.682Z,12.53
2017-03-03T11:34:08.592Z,12.53
2017-03-03T11:35:18.934Z,12.55
2017-03-03T11:36:28.946Z,12.59
2017-03-03T11:37:39.273Z,12.6
2017-03-03T11:38:50.064Z,12.92
2017-03-03T11:39:59.968Z,12.9
2017-03-03T11:41:10.254Z,13.08
2017-03-03T11:42:19.765Z,13.26
2017-03-03T11:43:30.092Z,13.36
2017-03-03T11:44:40.343Z,13.55
2017-03-03T11:45:50.282Z,13.64
2017-03-03T11:47:00.205Z,13.85
2017-03-03T11:48:09.777Z,13.76
2017-03-03T11:49:19.268Z,13.56
2017-03-03T11:50:29.052Z,13.67
2017-03-03T11:51:39.361Z,13.73
2017-03-03T11:52:49.659Z,13.56
2017-03-03T11:54:00.017Z,13.54
2017-03-03T11:55:10.386Z,13.36
2017-03-03T11:56:20.973Z,13.08
2017-03-03T11:57:31.360Z,13
2017-03-03T11:58:41.660Z,12.84
2017-03-03T11:59:52.047Z,13
2017-03-03T12:01:02.025Z,13
2017-03-03T12:02:12.796Z,12.93
2017-03-03T12:03:22.708Z,12.77
2017-03-03T12:04:33.071Z,12.82
2017-03-03T12:05:43.405Z,12.8
2017-03-03T12:06:53.707Z,12.63
2017-03-03T12:08:04.298Z,12.6
2017-03-03T12:09:14.590Z,12.6
2017-03-03T12:10:24.486Z,12.68
2017-03-03T12:11:34.895Z,12.64
2017-03-03T12:12:45.194Z,12.53
2017-03-03T12:13:55.823Z,12.38
2017-03-03T12:15:06.105Z,12.29
2017-03-03T12:16:16.417Z,12.34
2017-03-03T12:17:26.717Z,12.44
2017-03-03T12:18:37.133Z,12.53
2017-03-03T12:19:47.977Z,12.77
2017-03-03T12:20:58.366Z,12.85
2017-03-03T12:22:08.726Z,12.81
2017-03-03T12:23:19.075Z,12.82
2017-03-03T12:24:28.999Z,12.78
2017-03-03T12:25:38.417Z,12.56
2017-03-03T12:26:47.935Z,12.63
2017-03-03T12:27:57.818Z,12.55
2017-03-03T12:29:08.152Z,12.45
2017-03-03T12:30:18.124Z,12.24
2017-03-03T12:31:28.300Z,12.19
2017-03-03T12:32:38.238Z,11.97
2017-03-03T12:33:48.183Z,11.89
2017-03-03T12:34:58.588Z,12.04
2017-03-03T12:36:08.896Z,12.01
2017-03-03T12:37:19.088Z,12.07
2017-03-03T12:38:28.999Z,12.23
2017-03-03T12:39:38.901Z,12.41
2017-03-03T12:40:48.829Z,12.38
2017-03-03T12:41:58.842Z,12.37
2017-03-03T12:43:09.408Z,12.44
2017-03-03T12:44:19.309Z,12.32
2017-03-03T12:45:29.846Z,12.23
2017-03-03T12:46:39.753Z,12.08
2017-03-03T12:47:49.665Z,12.01
2017-03-03T12:49:00.291Z,11.83
2017-03-03T12:50:10.630Z,11.82
2017-03-03T12:51:20.975Z,11.8
2017-03-03T12:52:31.284Z,11.76
2017-03-03T12:53:41.613Z,11.8
2017-03-03T12:54:51.805Z,11.74
2017-03-03T12:56:02.192Z,11.68
2017-03-03T12:57:12.549Z,11.46
2017-03-03T12:58:22.459Z,11.43
2017-03-03T12:59:32.902Z,11.31
2017-03-03T13:00:43.463Z,11.23
2017-03-03T13:01:53.395Z,11.13
2017-03-03T13:03:03.333Z,11.1
2017-03-03T13:04:13.857Z,11.15
2017-03-03T13:05:24.270Z,11.35
2017-03-03T13:06:34.466Z,11.3
2017-03-03T13:07:44.355Z,11.23
2017-03-03T13:08:54.408Z,11.39
2017-03-03T13:10:04.735Z,11.4
2017-03-03T13:11:15.079Z,11.45
2017-03-03T13:12:25.668Z,11.39
2017-03-03T13:13:35.699Z,11.45
2017-03-03T13:14:45.207Z,11.57
2017-03-03T13:15:55.153Z,11.45
2017-03-03T13:17:05.063Z,11.48
2017-03-03T13:18:15.818Z,11.43
2017-03-03T13:19:26.266Z,11.39
2017-03-03T13:20:36.202Z,11.16
2017-03-03T13:21:46.594Z,11.24
2017-03-03T13:22:56.110Z,11.09
2017-03-03T13:24:06.268Z,11.08
2017-03-03T13:25:16.714Z,10.94
2017-03-03T13:26:27.047Z,10.83
2017-03-03T13:27:37.402Z,10.85
2017-03-03T13:28:46.967Z,10.76
2017-03-03T13:29:57.213Z,10.72
2017-03-03T13:31:07.159Z,10.66
2017-03-03T13:32:17.482Z,10.59
2017-03-03T13:33:27.844Z,10.45
2017-03-03T13:34:38.192Z,10.4
2017-03-03T13:35:47.989Z,10.36
2017-03-03T13:36:57.953Z,10.29
2017-03-03T13:38:08.307Z,10.32
2017-03-03T13:39:18.779Z,10.24
2017-03-03T13:40:29.212Z,10.13
2017-03-03T13:41:39.793Z,10.21
2017-03-03T13:42:49.738Z,10.11
2017-03-03T13:44:00.159Z,10.03
2017-03-03T13:45:10.526Z,10.02
2017-03-03T13:46:20.870Z,9.88
2017-03-03T13:47:31.603Z,9.78
2017-03-03T13:48:41.987Z,9.78
2017-03-03T13:49:51.543Z,9.74
2017-03-03T13:51:01.869Z,9.78
2017-03-03T13:52:11.780Z,9.8
2017-03-03T13:53:21.980Z,9.81
2017-03-03T13:54:32.309Z,9.73
2017-03-03T13:55:42.691Z,9.8
2017-03-03T13:56:52.685Z,9.85
2017-03-03T13:58:03.018Z,9.84
2017-03-03T13:59:13.634Z,9.89
2017-03-03T14:00:23.556Z,9.88
2017-03-03T14:01:33.912Z,9.83
2017-03-03T14:02:44.457Z,9.89
2017-03-03T14:03:54.784Z,9.88
2017-03-03T14:05:05.346Z,9.81
2017-03-03T14:06:15.685Z,9.91
2017-03-03T14:07:25.982Z,9.88
2017-03-03T14:08:36.296Z,9.88
2017-03-03T14:09:45.786Z,9.89
2017-03-03T14:10:56.366Z,9.84
2017-03-03T14:12:06.673Z,9.93
2017-03-03T14:13:17.016Z,9.85
2017-03-03T14:14:26.520Z,9.88
2017-03-03T14:15:36.401Z,9.83
2017-03-03T14:16:46.966Z,9.85
2017-03-03T14:17:56.971Z,9.89
2017-03-03T14:19:06.940Z,9.83
2017-03-03T14:20:16.008Z,9.81
2017-03-03T14:21:26.304Z,9.84
2017-03-03T14:22:36.856Z,9.85
2017-03-03T14:23:46.803Z,9.85
2017-03-03T14:24:57.193Z,9.83
2017-03-03T14:26:07.100Z,9.85
2017-03-03T14:27:17.478Z,9.81
2017-03-03T14:28:28.089Z,9.78
2017-03-03T14:29:38.389Z,9.81
2017-03-03T14:30:47.870Z,9.84
2017-03-03T14:31:57.375Z,9.88
2017-03-03T14:33:07.276Z,9.84
2017-03-03T14:34:17.490Z,9.81
2017-03-03T14:35:27.424Z,9.75
2017-03-03T14:36:37.731Z,9.81
2017-03-03T14:37:47.237Z,9.77
2017-03-03T14:38:57.217Z,9.8
2017-03-03T14:40:07.777Z,9.6
2017-03-03T14:41:18.079Z,9.55
2017-03-03T14:42:28.398Z,9.53
2017-03-03T14:43:38.315Z,9.52
2017-03-03T14:44:48.606Z,9.55
2017-03-03T14:45:58.762Z,9.53
2017-03-03T14:47:09.114Z,9.56
2017-03-03T14:48:19.427Z,9.4
2017-03-03T14:49:29.986Z,9.4
2017-03-03T14:50:40.287Z,9.33
2017-03-03T14:51:50.818Z,9.29
2017-03-03T14:53:00.299Z,9.22
2017-03-03T14:54:10.177Z,9.29
2017-03-03T14:55:20.131Z,9.27
2017-03-03T14:56:29.199Z,9.26
2017-03-03T14:57:38.918Z,9.27
2017-03-03T14:58:49.341Z,9.25
2017-03-03T14:59:59.242Z,9.26
2017-03-03T15:01:09.168Z,9.22
2017-03-03T15:02:19.503Z,9.26
2017-03-03T15:03:29.678Z,9.19
2017-03-03T15:04:40.181Z,9.17
2017-03-03T15:05:50.489Z,9.26
2017-03-03T15:07:00.922Z,9.23
2017-03-03T15:08:10.830Z,9.05
2017-03-03T15:09:21.415Z,9.12
2017-03-03T15:10:31.717Z,9.05
2017-03-03T15:11:41.635Z,8.97
2017-03-03T15:12:51.990Z,8.93
2017-03-03T15:14:01.502Z,9.04
2017-03-03T15:15:11.351Z,9.04
2017-03-03T15:16:20.834Z,8.97
2017-03-03T15:17:30.816Z,9.02
2017-03-03T15:18:41.118Z,9
2017-03-03T15:19:50.982Z,9.01
2017-03-03T15:21:01.517Z,9.02
2017-03-03T15:22:11.597Z,9
2017-03-03T15:23:21.524Z,9.04
2017-03-03T15:24:31.875Z,8.95
2017-03-03T15:25:42.469Z,8.92
2017-03-03T15:26:52.816Z,8.89
2017-03-03T15:28:03.070Z,8.8
2017-03-03T15:29:12.976Z,8.9
2017-03-03T15:30:23.282Z,8.77